createdAt,value
2018-02-11T00:01:31.880Z,2.90
2018-02-11T00:04:00.258Z,2.90
2018-02-11T00:06:28.656Z,2.80
2018-02-11T00:08:57.200Z,2.70
2018-02-11T00:11:25.572Z,2.70
2018-02-11T00:13:54.729Z,2.60
2018-02-11T00:16:23.136Z,2.50
2018-02-11T00:18:52.105Z,2.50
2018-02-11T00:21:20.484Z,2.50
2018-02-11T00:23:48.840Z,2.50
2018-02-11T00:26:17.235Z,2.40
2018-02-11T00:28:45.604Z,2.40
2018-02-11T00:31:13.981Z,2.40
2018-02-11T00:33:42.376Z,2.40
2018-02-11T00:36:10.756Z,2.40
2018-02-11T00:38:39.105Z,2.40
2018-02-11T00:41:07.468Z,2.40
2018-02-11T00:43:35.849Z,2.40
2018-02-11T00:46:04.625Z,2.30
2018-02-11T00:48:33.005Z,2.30
2018-02-11T00:51:01.404Z,2.30
2018-02-11T00:53:29.796Z,2.30
2018-02-11T00:55:58.412Z,2.30
2018-02-11T00:58:27.560Z,2.30
2018-02-11T01:00:56.005Z,2.20
2018-02-11T01:03:24.367Z,2.30
2018-02-11T01:05:53.542Z,2.20
2018-02-11T01:08:23.668Z,2.20
2018-02-11T01:10:52.048Z,2.20
2018-02-11T01:13:21.324Z,2.10
2018-02-11T01:15:49.664Z,2.10
2018-02-11T01:18:18.028Z,2.10
2018-02-11T01:20:47.149Z,2.00
2018-02-11T01:23:15.645Z,2.00
2018-02-11T01:25:44.002Z,2.00
2018-02-11T01:28:12.377Z,2.00
2018-02-11T01:30:40.835Z,2.00
2018-02-11T01:33:09.956Z,1.90
2018-02-11T01:35:38.314Z,1.90
2018-02-11T01:38:06.698Z,1.90
2018-02-11T01:40:35.075Z,1.90
2018-02-11T01:43:03.467Z,1.80
2018-02-11T01:45:31.843Z,1.80
2018-02-11T01:48:00.236Z,1.80
2018-02-11T01:50:28.585Z,1.80
2018-02-11T01:52:57.004Z,1.80
2018-02-11T01:55:25.367Z,1.80
2018-02-11T01:57:53.737Z,1.80
2018-02-11T02:00:22.128Z,1.80
2018-02-11T02:02:50.547Z,1.80
2018-02-11T02:05:18.970Z,1.80
2018-02-11T02:07:47.387Z,1.80
2018-02-11T02:10:15.736Z,1.80
2018-02-11T02:12:44.107Z,1.80
2018-02-11T02:15:12.494Z,1.80
2018-02-11T02:17:40.853Z,1.80
2018-02-11T02:20:09.200Z,1.70
2018-02-11T02:22:37.553Z,1.70
2018-02-11T02:25:05.931Z,1.70
2018-02-11T02:27:34.312Z,1.70
2018-02-11T02:30:02.727Z,1.70
2018-02-11T02:32:31.096Z,1.70
2018-02-11T02:35:00.221Z,1.70
2018-02-11T02:37:28.597Z,1.70
2018-02-11T02:39:56.956Z,1.80
2018-02-11T02:42:26.338Z,1.70
2018-02-11T02:44:54.708Z,1.70
2018-02-11T02:47:23.081Z,1.70
2018-02-11T02:49:51.440Z,1.70
2018-02-11T02:52:19.811Z,1.70
2018-02-11T02:54:48.188Z,1.80
2018-02-11T02:57:16.524Z,1.80
2018-02-11T02:59:45.681Z,2.00
2018-02-11T03:02:14.057Z,1.90
2018-02-11T03:04:42.431Z,2.10
2018-02-11T03:07:10.800Z,2.10
2018-02-11T03:09:39.190Z,2.10
2018-02-11T03:12:07.537Z,2.10
2018-02-11T03:14:35.907Z,2.10
2018-02-11T03:17:04.311Z,2.20
2018-02-11T03:19:32.665Z,2.20
2018-02-11T03:22:01.021Z,2.20
2018-02-11T03:24:30.186Z,2.20
2018-02-11T03:26:58.535Z,2.20
2018-02-11T03:29:26.952Z,2.20
2018-02-11T03:31:55.304Z,2.20
2018-02-11T03:34:23.669Z,2.20
2018-02-11T03:36:52.060Z,2.30
2018-02-11T03:39:20.420Z,2.30
2018-02-11T03:41:48.830Z,2.30
2018-02-11T03:44:17.178Z,2.30
2018-02-11T03:46:45.524Z,2.30
2018-02-11T03:49:13.940Z,2.40
2018-02-11T03:51:42.296Z,2.40
2018-02-11T03:54:10.656Z,2.40
2018-02-11T03:56:39.793Z,2.60
2018-02-11T03:59:08.185Z,2.60
2018-02-11T04:01:36.523Z,2.70
2018-02-11T04:04:04.877Z,2.70
2018-02-11T04:06:33.246Z,2.80
2018-02-11T04:09:02.387Z,2.90
2018-02-11T04:11:30.985Z,2.80
2018-02-11T04:13:59.428Z,2.80
2018-02-11T04:16:28.527Z,2.90
2018-02-11T04:18:57.021Z,2.80
2018-02-11T04:21:25.439Z,2.90
2018-02-11T04:23:53.775Z,2.90
2018-02-11T04:26:22.146Z,2.90
2018-02-11T04:28:50.560Z,2.90
2018-02-11T04:31:18.932Z,3.00
2018-02-11T04:33:47.287Z,3.00
2018-02-11T04:36:15.641Z,3.00
2018-02-11T04:38:44.922Z,3.10
2018-02-11T04:41:13.310Z,3.00
2018-02-11T04:43:42.435Z,3.10
2018-02-11T04:46:10.844Z,3.10
2018-02-11T04:48:39.224Z,3.10
2018-02-11T04:51:07.824Z,3.10
2018-02-11T04:53:36.967Z,3.10
2018-02-11T04:56:05.368Z,3.10
2018-02-11T04:58:33.761Z,3.10
2018-02-11T05:01:02.237Z,3.10
2018-02-11T05:03:32.120Z,3.00
2018-02-11T05:06:00.532Z,3.00
2018-02-11T05:08:28.939Z,3.00
2018-02-11T05:10:58.060Z,2.90
2018-02-11T05:13:26.432Z,2.90
2018-02-11T05:15:55.556Z,2.90
2018-02-11T05:18:23.932Z,2.90
2018-02-11T05:20:52.321Z,2.80
2018-02-11T05:23:20.685Z,2.80
2018-02-11T05:25:49.033Z,2.80
2018-02-11T05:28:17.444Z,2.90
2018-02-11T05:30:45.804Z,2.90
2018-02-11T05:33:14.906Z,3.10
2018-02-11T05:35:43.296Z,3.00
2018-02-11T05:38:11.656Z,3.10
2018-02-11T05:40:40.040Z,3.10
2018-02-11T05:43:08.396Z,3.10
2018-02-11T05:45:37.544Z,3.10
2018-02-11T05:48:06.890Z,3.10
2018-02-11T05:50:36.036Z,3.20
2018-02-11T05:53:04.385Z,3.10
2018-02-11T05:55:33.708Z,3.20
2018-02-11T05:58:02.079Z,3.20
2018-02-11T06:00:30.441Z,3.30
2018-02-11T06:02:58.857Z,3.40
2018-02-11T06:05:27.236Z,3.40
2018-02-11T06:07:55.636Z,3.40
2018-02-11T06:10:23.984Z,3.50
2018-02-11T06:12:52.350Z,3.50
2018-02-11T06:15:20.704Z,3.50
2018-02-11T06:17:49.095Z,3.60
2018-02-11T06:20:17.505Z,3.60
2018-02-11T06:22:45.958Z,3.60
2018-02-11T06:25:14.321Z,3.60
2018-02-11T06:27:42.726Z,3.60
2018-02-11T06:30:11.105Z,3.60
2018-02-11T06:32:39.501Z,3.60
2018-02-11T06:35:07.857Z,3.70
2018-02-11T06:37:36.360Z,3.70
2018-02-11T06:40:04.761Z,3.70
2018-02-11T06:42:33.893Z,3.80
2018-02-11T06:45:03.039Z,3.90
2018-02-11T06:47:32.184Z,3.90
2018-02-11T06:50:00.881Z,3.80
2018-02-11T06:52:29.289Z,3.90
2018-02-11T06:54:57.703Z,3.90
2018-02-11T06:57:26.824Z,3.90
2018-02-11T06:59:55.219Z,3.80
2018-02-11T07:02:23.593Z,3.80
2018-02-11T07:04:52.029Z,3.80
2018-02-11T07:07:21.170Z,3.90
2018-02-11T07:09:49.531Z,3.90
2018-02-11T07:12:17.941Z,3.90
2018-02-11T07:14:46.311Z,4.00
2018-02-11T07:17:14.708Z,4.00
2018-02-11T07:19:43.080Z,4.10
2018-02-11T07:22:11.505Z,4.10
2018-02-11T07:24:39.884Z,4.00
2018-02-11T07:27:09.051Z,3.90
2018-02-11T07:29:37.428Z,3.80
2018-02-11T07:32:06.756Z,3.60
2018-02-11T07:34:35.892Z,3.60
2018-02-11T07:37:04.332Z,3.50
2018-02-11T07:39:32.739Z,3.50
2018-02-11T07:42:01.097Z,3.50
2018-02-11T07:44:29.496Z,3.40
2018-02-11T07:46:57.847Z,3.40
2018-02-11T07:49:26.245Z,3.30
2018-02-11T07:51:54.700Z,3.30
2018-02-11T07:54:23.852Z,3.40
2018-02-11T07:56:52.208Z,3.30
2018-02-11T07:59:20.604Z,3.40
2018-02-11T08:01:48.961Z,3.40
2018-02-11T08:04:17.366Z,3.50
2018-02-11T08:06:45.717Z,3.50
2018-02-11T08:09:14.093Z,3.50
2018-02-11T08:11:42.471Z,3.60
2018-02-11T08:14:10.832Z,3.70
2018-02-11T08:16:39.976Z,3.80
2018-02-11T08:19:08.336Z,3.70
2018-02-11T08:21:36.716Z,3.80
2018-02-11T08:24:05.068Z,3.90
2018-02-11T08:26:33.448Z,3.90
2018-02-11T08:29:01.827Z,3.90
2018-02-11T08:31:30.223Z,3.90
2018-02-11T08:33:58.588Z,4.00
2018-02-11T08:36:26.949Z,4.00
2018-02-11T08:38:56.102Z,4.00
2018-02-11T08:41:24.456Z,4.00
2018-02-11T08:43:52.881Z,4.00
2018-02-11T08:46:21.241Z,4.00
2018-02-11T08:48:49.624Z,4.00
2018-02-11T08:51:18.065Z,4.00
2018-02-11T08:53:46.488Z,4.00
2018-02-11T08:56:14.856Z,3.90
2018-02-11T08:58:44.441Z,3.90
2018-02-11T09:01:12.804Z,3.90
2018-02-11T09:03:41.156Z,3.90
2018-02-11T09:06:09.552Z,3.80
2018-02-11T09:08:37.922Z,3.90
2018-02-11T09:11:07.079Z,3.90
2018-02-11T09:13:35.434Z,3.80
2018-02-11T09:16:03.837Z,3.90
2018-02-11T09:18:32.206Z,3.80
2018-02-11T09:21:02.090Z,3.70
2018-02-11T09:23:30.527Z,3.70
2018-02-11T09:25:58.904Z,3.80
2018-02-11T09:28:27.296Z,3.80
2018-02-11T09:30:55.756Z,3.80
2018-02-11T09:33:25.181Z,3.80
2018-02-11T09:35:53.544Z,3.80
2018-02-11T09:38:21.975Z,3.80
2018-02-11T09:40:50.333Z,3.80
2018-02-11T09:43:18.832Z,3.90
2018-02-11T09:45:47.985Z,4.00
2018-02-11T09:48:16.392Z,3.90
2018-02-11T09:50:44.750Z,4.00
2018-02-11T09:53:13.097Z,4.10
2018-02-11T09:55:41.493Z,4.20
2018-02-11T09:58:09.852Z,4.30
2018-02-11T10:00:38.268Z,4.30
2018-02-11T10:03:06.648Z,4.40
2018-02-11T10:05:35.087Z,4.60
2018-02-11T10:08:03.492Z,4.70
2018-02-11T10:10:31.872Z,4.90
2018-02-11T10:13:00.226Z,5.00
2018-02-11T10:15:28.676Z,5.20
2018-02-11T10:17:57.056Z,5.30
2018-02-11T10:20:26.260Z,5.30
2018-02-11T10:22:54.623Z,5.30
2018-02-11T10:25:23.268Z,5.30
2018-02-11T10:27:51.664Z,5.30
2018-02-11T10:30:20.107Z,5.30
2018-02-11T10:32:49.261Z,5.30
2018-02-11T10:35:17.636Z,5.20
2018-02-11T10:37:46.031Z,5.30
2018-02-11T10:40:14.392Z,5.30
2018-02-11T10:42:42.796Z,5.20
2018-02-11T10:45:11.148Z,5.20
2018-02-11T10:47:39.528Z,5.20
2018-02-11T10:50:07.877Z,5.20
2018-02-11T10:52:36.260Z,5.10
2018-02-11T10:55:04.653Z,5.20
2018-02-11T10:57:33.706Z,5.20
2018-02-11T11:00:03.075Z,5.30
2018-02-11T11:02:31.567Z,5.20
2018-02-11T11:05:00.725Z,5.50
2018-02-11T11:07:29.092Z,5.40
2018-02-11T11:09:57.497Z,5.60
2018-02-11T11:12:25.856Z,5.70
2018-02-11T11:14:54.275Z,5.70
2018-02-11T11:17:22.628Z,5.70
2018-02-11T11:19:51.044Z,5.90
2018-02-11T11:22:19.417Z,6.00
2018-02-11T11:24:48.552Z,5.90
2018-02-11T11:27:16.928Z,5.90
2018-02-11T11:29:45.280Z,5.90
2018-02-11T11:32:14.424Z,5.90
2018-02-11T11:34:42.788Z,5.90
2018-02-11T11:37:11.144Z,5.90
2018-02-11T11:39:39.528Z,5.80
2018-02-11T11:42:07.973Z,5.70
2018-02-11T11:44:37.124Z,5.70
2018-02-11T11:47:05.480Z,5.60
2018-02-11T11:49:33.960Z,5.70
2018-02-11T11:52:02.372Z,5.70
2018-02-11T11:54:30.725Z,5.80
2018-02-11T11:56:59.072Z,5.80
2018-02-11T11:59:28.212Z,6.00
2018-02-11T12:01:56.570Z,5.90
2018-02-11T12:04:24.952Z,6.00
2018-02-11T12:06:53.309Z,6.00
2018-02-11T12:09:21.677Z,6.00
2018-02-11T12:11:50.824Z,6.00
2018-02-11T12:14:19.392Z,6.00
2018-02-11T12:16:47.742Z,6.20
2018-02-11T12:19:16.139Z,6.20
2018-02-11T12:21:44.500Z,6.30
2018-02-11T12:24:13.617Z,6.60
2018-02-11T12:26:42.026Z,6.50
2018-02-11T12:29:10.376Z,6.70
2018-02-11T12:31:38.818Z,6.60
2018-02-11T12:34:08.071Z,6.80
2018-02-11T12:36:36.427Z,6.80
2018-02-11T12:39:04.769Z,6.80
2018-02-11T12:41:33.160Z,6.70
2018-02-11T12:44:02.281Z,6.70
2018-02-11T12:46:30.688Z,6.60
2018-02-11T12:48:59.155Z,6.60
2018-02-11T12:51:27.476Z,6.60
2018-02-11T12:53:56.647Z,6.70
2018-02-11T12:56:25.284Z,6.70
2018-02-11T12:58:53.665Z,6.70
2018-02-11T13:01:22.084Z,6.60
2018-02-11T13:03:50.428Z,6.60
2018-02-11T13:06:18.792Z,6.60
2018-02-11T13:08:47.950Z,6.50
2018-02-11T13:11:17.085Z,6.50
2018-02-11T13:13:45.444Z,6.40
2018-02-11T13:16:13.848Z,6.40
2018-02-11T13:18:42.206Z,6.40
2018-02-11T13:21:10.574Z,6.30
2018-02-11T13:23:39.723Z,6.30
2018-02-11T13:26:08.088Z,6.30
2018-02-11T13:28:36.468Z,6.30
2018-02-11T13:31:04.842Z,6.30
2018-02-11T13:33:33.264Z,6.30
2018-02-11T13:36:02.397Z,6.30
2018-02-11T13:38:30.816Z,6.30
2018-02-11T13:41:00.011Z,6.30
2018-02-11T13:43:28.391Z,6.30
2018-02-11T13:45:56.758Z,6.30
2018-02-11T13:48:25.151Z,6.30
2018-02-11T13:50:53.508Z,6.40
2018-02-11T13:53:22.747Z,6.20
2018-02-11T13:55:51.944Z,5.90
2018-02-11T13:58:20.302Z,5.90
2018-02-11T14:00:48.671Z,5.90
2018-02-11T14:03:17.045Z,5.90
2018-02-11T14:05:45.416Z,5.80
2018-02-11T14:08:14.008Z,5.80
2018-02-11T14:10:42.368Z,5.80
2018-02-11T14:13:10.716Z,5.80
2018-02-11T14:15:39.877Z,5.80
2018-02-11T14:18:08.336Z,5.80
2018-02-11T14:20:36.741Z,5.90
2018-02-11T14:23:05.124Z,5.90
2018-02-11T14:25:33.488Z,6.00
2018-02-11T14:28:01.885Z,6.00
2018-02-11T14:30:30.284Z,6.00
2018-02-11T14:32:58.653Z,5.90
2018-02-11T14:35:27.850Z,5.80
2018-02-11T14:37:57.004Z,5.80
2018-02-11T14:40:25.377Z,5.80
2018-02-11T14:42:53.715Z,5.90
2018-02-11T14:45:22.916Z,5.90
2018-02-11T14:47:52.020Z,5.90
2018-02-11T14:50:20.391Z,5.90
2018-02-11T14:52:48.796Z,5.90
2018-02-11T14:55:17.140Z,5.90
2018-02-11T14:57:45.516Z,5.90
2018-02-11T15:00:14.712Z,5.90
2018-02-11T15:02:43.084Z,5.90
2018-02-11T15:05:11.463Z,5.90
2018-02-11T15:07:40.816Z,5.80
2018-02-11T15:10:09.177Z,5.70
2018-02-11T15:12:37.533Z,5.80
2018-02-11T15:15:05.936Z,5.80
2018-02-11T15:17:34.299Z,5.80
2018-02-11T15:20:02.704Z,5.70
2018-02-11T15:22:31.070Z,5.70
2018-02-11T15:25:00.062Z,5.80
2018-02-11T15:27:29.596Z,5.80
2018-02-11T15:29:57.933Z,5.80
2018-02-11T15:32:26.286Z,5.90
2018-02-11T15:34:55.670Z,5.90
2018-02-11T15:37:24.792Z,5.90
2018-02-11T15:39:54.027Z,5.90
2018-02-11T15:42:22.399Z,5.80
2018-02-11T15:44:50.784Z,5.90
2018-02-11T15:47:19.138Z,5.80
2018-02-11T15:49:47.482Z,5.70
2018-02-11T15:52:16.737Z,5.60
2018-02-11T15:54:45.100Z,5.50
2018-02-11T15:57:13.492Z,5.60
2018-02-11T15:59:41.872Z,5.50
2018-02-11T16:02:10.278Z,5.50
2018-02-11T16:04:38.631Z,5.40
2018-02-11T16:07:07.024Z,5.40
2018-02-11T16:09:35.368Z,5.40
2018-02-11T16:12:03.717Z,5.30
2018-02-11T16:14:32.888Z,5.20
2018-02-11T16:17:02.033Z,5.20
2018-02-11T16:19:30.440Z,5.20
2018-02-11T16:21:58.864Z,5.10
2018-02-11T16:24:27.244Z,5.10
2018-02-11T16:26:56.371Z,5.10
2018-02-11T16:29:24.748Z,5.10
2018-02-11T16:31:53.132Z,5.10
2018-02-11T16:34:21.504Z,5.10
2018-02-11T16:36:49.864Z,5.10
2018-02-11T16:39:18.263Z,5.10
2018-02-11T16:41:46.665Z,5.10
2018-02-11T16:44:15.807Z,5.10
2018-02-11T16:46:44.929Z,5.10
2018-02-11T16:49:13.310Z,5.00
2018-02-11T16:51:41.685Z,5.10
2018-02-11T16:54:10.040Z,5.10
2018-02-11T16:56:38.434Z,5.10
2018-02-11T16:59:06.852Z,5.10
2018-02-11T17:01:35.208Z,5.00
2018-02-11T17:04:03.585Z,5.00
2018-02-11T17:06:31.940Z,4.90
2018-02-11T17:09:00.324Z,5.00
2018-02-11T17:11:28.691Z,4.90
2018-02-11T17:13:57.557Z,5.00
2018-02-11T17:16:26.714Z,4.90
2018-02-11T17:18:55.089Z,4.80
2018-02-11T17:21:23.435Z,4.90
2018-02-11T17:23:51.842Z,4.80
2018-02-11T17:26:20.200Z,4.70
2018-02-11T17:28:48.578Z,4.70
2018-02-11T17:31:16.958Z,4.70
2018-02-11T17:33:45.413Z,4.70
2018-02-11T17:36:13.838Z,4.70
2018-02-11T17:38:42.334Z,4.70
2018-02-11T17:41:10.776Z,4.60
2018-02-11T17:43:39.128Z,4.60
2018-02-11T17:46:08.253Z,4.60
2018-02-11T17:48:36.623Z,4.60
2018-02-11T17:51:05.148Z,4.70
2018-02-11T17:53:33.573Z,4.70
2018-02-11T17:56:01.961Z,4.70
2018-02-11T17:58:30.316Z,4.70
2018-02-11T18:00:59.665Z,4.70
2018-02-11T18:03:28.025Z,4.60
2018-02-11T18:05:56.371Z,4.60
2018-02-11T18:08:25.529Z,4.60
2018-02-11T18:10:54.904Z,4.60
2018-02-11T18:13:23.300Z,4.50
2018-02-11T18:15:51.644Z,4.60
2018-02-11T18:18:20.749Z,4.70
2018-02-11T18:20:49.606Z,4.60
2018-02-11T18:23:18.494Z,4.70
2018-02-11T18:25:47.277Z,4.70
2018-02-11T18:28:16.796Z,4.80
2018-02-11T18:30:46.500Z,4.80
2018-02-11T18:33:15.952Z,4.80
2018-02-11T18:35:44.359Z,4.70
2018-02-11T18:38:13.272Z,4.70
2018-02-11T18:40:42.978Z,4.70
2018-02-11T18:43:12.615Z,4.70
2018-02-11T18:45:40.992Z,4.60
2018-02-11T18:48:09.588Z,4.70
2018-02-11T18:50:38.022Z,4.80
2018-02-11T18:53:07.152Z,4.80
2018-02-11T18:55:35.670Z,4.80
2018-02-11T18:58:04.557Z,4.70
2018-02-11T19:00:32.935Z,4.70
2018-02-11T19:03:02.396Z,4.60
2018-02-11T19:05:30.780Z,4.50
2018-02-11T19:07:59.152Z,4.40
2018-02-11T19:10:27.560Z,4.40
2018-02-11T19:12:55.927Z,4.40
2018-02-11T19:15:24.304Z,4.40
2018-02-11T19:17:52.721Z,4.40
2018-02-11T19:20:22.077Z,4.50
2018-02-11T19:22:51.564Z,4.40
2018-02-11T19:25:19.990Z,4.50
2018-02-11T19:27:48.516Z,4.60
2018-02-11T19:30:17.093Z,4.60
2018-02-11T19:32:46.276Z,4.70
2018-02-11T19:35:14.628Z,4.60
2018-02-11T19:37:43.275Z,4.70
2018-02-11T19:40:11.797Z,4.70
2018-02-11T19:42:40.481Z,4.70
2018-02-11T19:45:09.102Z,4.60
2018-02-11T19:47:37.520Z,4.50
2018-02-11T19:50:06.037Z,4.40
2018-02-11T19:52:34.432Z,4.30
2018-02-11T19:55:03.742Z,4.20
2018-02-11T19:57:32.130Z,4.10
2018-02-11T20:00:00.644Z,4.10
2018-02-11T20:02:29.288Z,4.10
2018-02-11T20:04:58.472Z,4.00
2018-02-11T20:07:27.054Z,4.00
2018-02-11T20:09:55.457Z,3.90
2018-02-11T20:12:24.575Z,3.80
2018-02-11T20:14:53.439Z,3.80
2018-02-11T20:17:21.896Z,3.80
2018-02-11T20:19:51.435Z,3.70
2018-02-11T20:22:20.118Z,3.60
2018-02-11T20:24:48.585Z,3.70
2018-02-11T20:27:17.044Z,3.70
2018-02-11T20:29:45.408Z,3.70
2018-02-11T20:32:13.940Z,3.60
2018-02-11T20:34:42.674Z,3.60
2018-02-11T20:37:12.106Z,3.60
2018-02-11T20:39:41.432Z,3.60
2018-02-11T20:42:09.888Z,3.50
2018-02-11T20:44:38.261Z,3.50
2018-02-11T20:47:07.389Z,3.60
2018-02-11T20:49:35.788Z,3.50
2018-02-11T20:52:04.148Z,3.60
2018-02-11T20:54:32.509Z,3.50
2018-02-11T20:57:00.908Z,3.30
2018-02-11T20:59:29.291Z,3.20
2018-02-11T21:01:57.668Z,3.20
2018-02-11T21:04:26.272Z,3.10
2018-02-11T21:06:54.628Z,3.00
2018-02-11T21:09:23.059Z,3.10
2018-02-11T21:11:51.426Z,3.10
2018-02-11T21:14:19.781Z,3.10
2018-02-11T21:16:48.140Z,3.10
2018-02-11T21:19:16.492Z,3.10
2018-02-11T21:21:44.916Z,3.00
2018-02-11T21:24:13.276Z,3.00
2018-02-11T21:26:41.616Z,3.10
2018-02-11T21:29:10.804Z,3.10
2018-02-11T21:31:39.184Z,3.10
2018-02-11T21:34:08.314Z,3.20
2018-02-11T21:36:36.696Z,3.20
2018-02-11T21:39:05.053Z,3.20
2018-02-11T21:41:33.448Z,3.30
2018-02-11T21:44:01.807Z,3.30
2018-02-11T21:46:30.929Z,3.30
2018-02-11T21:48:59.404Z,3.30
2018-02-11T21:51:27.848Z,3.20
2018-02-11T21:53:57.692Z,3.10
2018-02-11T21:56:26.084Z,3.10
2018-02-11T21:58:54.446Z,3.10
2018-02-11T22:01:22.848Z,3.20
2018-02-11T22:03:51.233Z,3.20
2018-02-11T22:06:19.611Z,3.20
2018-02-11T22:08:47.968Z,3.20
2018-02-11T22:11:16.328Z,3.20
2018-02-11T22:13:44.708Z,3.20
2018-02-11T22:16:13.226Z,3.20
2018-02-11T22:18:41.604Z,3.20
2018-02-11T22:21:09.956Z,3.20
2018-02-11T22:23:38.360Z,3.10
2018-02-11T22:26:06.785Z,3.10
2018-02-11T22:28:35.152Z,3.10
2018-02-11T22:31:04.302Z,3.00
2018-02-11T22:33:32.716Z,3.00
2018-02-11T22:36:01.848Z,3.10
2018-02-11T22:38:30.248Z,3.00
2018-02-11T22:40:59.471Z,3.20
2018-02-11T22:43:27.832Z,3.10
2018-02-11T22:45:56.200Z,3.20
2018-02-11T22:48:24.612Z,3.20
2018-02-11T22:50:53.064Z,3.20
2018-02-11T22:53:21.408Z,3.20
2018-02-11T22:55:49.815Z,3.20
2018-02-11T22:58:18.192Z,3.20
2018-02-11T23:00:46.546Z,3.30
2018-02-11T23:03:15.750Z,3.30
2018-02-11T23:05:44.156Z,3.20
2018-02-11T23:08:12.556Z,3.20
2018-02-11T23:10:40.959Z,3.20
2018-02-11T23:13:09.380Z,3.10
2018-02-11T23:15:37.745Z,3.10
2018-02-11T23:18:06.088Z,3.00
2018-02-11T23:20:34.524Z,3.00
2018-02-11T23:23:02.876Z,2.90
2018-02-11T23:25:31.333Z,2.90
2018-02-11T23:28:01.165Z,2.90
2018-02-11T23:30:30.524Z,2.80
2018-02-11T23:32:59.928Z,2.90
2018-02-11T23:35:28.280Z,2.80
2018-02-11T23:37:56.756Z,2.80
2018-02-11T23:40:25.133Z,2.80
2018-02-11T23:42:53.528Z,2.90
2018-02-11T23:45:21.932Z,2.90
2018-02-11T23:47:50.277Z,2.90
2018-02-11T23:50:18.680Z,2.90
2018-02-11T23:52:47.084Z,2.90
2018-02-11T23:55:16.217Z,3.00
2018-02-11T23:57:44.592Z,3.00
